Time;durP1;ratioP1;P1;durP2;ratioP2;P2;SDS_P1;SDS_P2;PMS_P1;PMS_P2;Temp;Humidity;BMP_temperature;BMP_pressure;BME280_temperature;BME280_humidity;BME280_pressure;Samples;Min_cycle;Max_cycle;Signal;HPM_P1;HPM_P2
2024/03/30 00:02:21;;;;;;;;;4.00;4.00;;;;;;;;5100622;27;46396;-80
2024/03/30 00:04:47;;;;;;;;;3.00;3.00;;;;;;;;5100482;27;45435;-80
2024/03/30 00:07:12;;;;;;;;;3.33;3.33;;;;;;;;5100775;27;45314;-80
2024/03/30 00:09:37;;;;;;;;;4.00;4.00;;;;;;;;5100576;27;45297;-80
2024/03/30 00:12:02;;;;;;;;;5.00;4.00;;;;;;;;5100558;27;46323;-80
2024/03/30 00:14:27;;;;;;;;;4.00;3.33;;;;;;;;5099043;27;45414;-80
2024/03/30 00:16:53;;;;;;;;;2.00;2.00;;;;;;;;5086307;27;45351;-80
2024/03/30 00:19:18;;;;;;;;;2.00;2.00;;;;;;;;5079825;27;45298;-80
2024/03/30 00:21:43;;;;;;;;;3.33;3.33;;;;;;;;5078587;28;47210;-81
2024/03/30 00:24:08;;;;;;;;;4.00;4.00;;;;;;;;5078803;28;45237;-80
2024/03/30 00:26:33;;;;;;;;;3.33;3.33;;;;;;;;5080012;27;45334;-81
2024/03/30 00:28:58;;;;;;;;;3.00;3.00;;;;;;;;5078440;28;47266;-80
2024/03/30 00:31:26;;;;;;;;;5.00;3.33;;;;;;;;5079801;27;45391;-80
2024/03/30 00:33:51;;;;;;;;;0.00;0.00;;;;;;;;5078357;28;45583;-81
2024/03/30 00:36:16;;;;;;;;;2.67;2.67;;;;;;;;5080011;27;45215;-80
2024/03/30 00:38:45;;;;;;;;;3.33;3.33;;;;;;;;5078497;28;45912;-80
2024/03/30 00:41:10;;;;;;;;;4.00;4.00;;;;;;;;5079871;27;46237;-81
2024/03/30 00:43:36;;;;;;;;;3.00;3.00;;;;;;;;5079461;27;45306;-81
2024/03/30 00:46:01;;;;;;;;;4.00;4.00;;;;;;;;5078514;27;45501;-80
2024/03/30 00:48:26;;;;;;;;;4.00;3.33;;;;;;;;5076529;28;45996;-82
2024/03/30 00:50:52;;;;;;;;;4.00;4.00;;;;;;;;5078768;27;45530;-80
2024/03/30 00:53:17;;;;;;;;;4.33;4.33;;;;;;;;5078022;28;45920;-79
2024/03/30 00:55:42;;;;;;;;;3.67;3.67;;;;;;;;5079766;27;45317;-80
2024/03/30 00:58:07;;;;;;;;;6.67;5.00;;;;;;;;5078170;28;46096;-79
2024/03/30 01:00:32;;;;;;;;;6.00;4.67;;;;;;;;5080451;28;46590;-79
2024/03/30 01:02:57;;;;;;;;;7.00;5.00;;;;;;;;5083138;28;45235;-80
2024/03/30 01:05:23;;;;;;;;;8.00;7.33;;;;;;;;5083306;28;45282;-80
2024/03/30 01:07:48;;;;;;;;;8.00;6.00;;;;;;;;5081373;28;46820;-80
2024/03/30 01:10:13;;;;;;;;;9.00;7.67;;;;;;;;5082857;28;45821;-79
2024/03/30 01:12:39;;;;;;;;;9.00;8.67;;;;;;;;5082930;28;45286;-79
2024/03/30 01:15:05;;;;;;;;;7.67;7.67;;;;;;;;5082775;28;45255;-79
2024/03/30 01:17:30;;;;;;;;;9.00;9.00;;;;;;;;5081293;28;46323;-79
2024/03/30 01:19:56;;;;;;;;;12.67;10.33;;;;;;;;5081009;28;46984;-80
2024/03/30 01:22:21;;;;;;;;;12.00;8.67;;;;;;;;5082592;28;45302;-79
2024/03/30 01:24:46;;;;;;;;;6.00;6.00;;;;;;;;5082913;28;45201;-80
2024/03/30 01:27:16;;;;;;;;;7.00;7.00;;;;;;;;5082531;28;46225;-80
2024/03/30 01:29:42;;;;;;;;;8.00;6.33;;;;;;;;5080620;27;47025;-79
2024/03/30 01:32:08;;;;;;;;;4.33;4.33;;;;;;;;5081052;28;45314;-79
2024/03/30 01:34:33;;;;;;;;;2.67;2.67;;;;;;;;5081345;28;45226;-79
2024/03/30 01:36:58;;;;;;;;;5.00;4.67;;;;;;;;5082058;28;45291;-80
2024/03/30 01:39:24;;;;;;;;;4.67;4.67;;;;;;;;5082354;28;45272;-79
2024/03/30 01:41:49;;;;;;;;;5.33;5.00;;;;;;;;5082560;28;45282;-79
2024/03/30 01:44:14;;;;;;;;;4.00;4.00;;;;;;;;5081027;28;45177;-80
2024/03/30 01:46:40;;;;;;;;;6.00;6.00;;;;;;;;5080912;28;46021;-79
2024/03/30 01:49:05;;;;;;;;;5.00;5.00;;;;;;;;5082190;28;45338;-79
2024/03/30 01:51:30;;;;;;;;;6.67;6.00;;;;;;;;5082307;28;45939;-79
2024/03/30 01:53:57;;;;;;;;;7.33;7.00;;;;;;;;5080962;28;45721;-79
2024/03/30 01:56:22;;;;;;;;;5.00;5.00;;;;;;;;5081885;28;45519;-79
2024/03/30 01:58:49;;;;;;;;;7.00;6.33;;;;;;;;5100474;27;47290;-79
2024/03/30 02:01:14;;;;;;;;;8.00;6.00;;;;;;;;5101412;27;45508;-80
2024/03/30 02:03:39;;;;;;;;;7.33;6.00;;;;;;;;5102056;27;45343;-79
2024/03/30 02:06:05;;;;;;;;;6.33;6.33;;;;;;;;5102610;27;45259;-79
2024/03/30 02:08:31;;;;;;;;;7.33;7.33;;;;;;;;5100925;27;48579;-79
2024/03/30 02:10:57;;;;;;;;;9.67;9.00;;;;;;;;5100985;27;45337;-79
2024/03/30 02:13:23;;;;;;;;;7.67;7.67;;;;;;;;5101479;27;45369;-79
2024/03/30 02:15:48;;;;;;;;;6.33;6.33;;;;;;;;5101989;27;45272;-78
2024/03/30 02:18:14;;;;;;;;;9.00;8.00;;;;;;;;5102089;27;45434;-79
2024/03/30 02:20:39;;;;;;;;;9.67;8.33;;;;;;;;5100104;27;45653;-78
2024/03/30 02:23:05;;;;;;;;;9.33;8.67;;;;;;;;5101870;27;45265;-79
2024/03/30 02:25:30;;;;;;;;;10.00;9.00;;;;;;;;5102282;27;45403;-78
2024/03/30 02:27:55;;;;;;;;;11.67;10.00;;;;;;;;5101976;27;46328;-78
2024/03/30 02:30:26;;;;;;;;;10.33;10.00;;;;;;;;5102099;27;45273;-79
2024/03/30 02:32:51;;;;;;;;;12.00;12.00;;;;;;;;5101857;27;45353;-78
2024/03/30 02:35:17;;;;;;;;;12.67;10.00;;;;;;;;5100330;27;46405;-79
2024/03/30 02:37:43;;;;;;;;;11.33;9.67;;;;;;;;5100680;27;47244;-79
2024/03/30 02:40:08;;;;;;;;;14.00;11.00;;;;;;;;5102024;27;45244;-78
2024/03/30 02:42:34;;;;;;;;;13.00;13.00;;;;;;;;5100705;27;45248;-79
2024/03/30 02:44:59;;;;;;;;;15.00;12.33;;;;;;;;5100298;27;47421;-79
2024/03/30 02:47:24;;;;;;;;;11.67;11.67;;;;;;;;5101777;27;45328;-78
2024/03/30 02:49:49;;;;;;;;;13.67;11.67;;;;;;;;5101607;27;45250;-79
2024/03/30 02:52:15;;;;;;;;;8.67;8.67;;;;;;;;5101657;27;45363;-79
2024/03/30 02:54:40;;;;;;;;;12.33;11.33;;;;;;;;5100382;27;47140;-79
2024/03/30 02:57:05;;;;;;;;;11.00;10.00;;;;;;;;5095853;27;45332;-78
2024/03/30 02:59:30;;;;;;;;;12.67;10.00;;;;;;;;5080955;28;45299;-79
2024/03/30 03:01:55;;;;;;;;;11.00;9.33;;;;;;;;5080106;28;45186;-79
2024/03/30 03:04:20;;;;;;;;;7.33;7.33;;;;;;;;5081067;28;45199;-79
2024/03/30 03:06:46;;;;;;;;;4.00;3.33;;;;;;;;5080808;28;46693;-78
2024/03/30 03:09:11;;;;;;;;;5.00;5.00;;;;;;;;5080538;28;45239;-79
2024/03/30 03:11:36;;;;;;;;;5.00;4.00;;;;;;;;5080935;28;45214;-79
2024/03/30 03:14:01;;;;;;;;;4.00;4.00;;;;;;;;5079632;28;45432;-78
2024/03/30 03:16:27;;;;;;;;;2.33;1.67;;;;;;;;5080862;28;46235;-79
2024/03/30 03:18:52;;;;;;;;;2.00;1.67;;;;;;;;5079472;28;45913;-78
2024/03/30 03:21:17;;;;;;;;;1.33;1.33;;;;;;;;5081115;28;45314;-78
2024/03/30 03:23:43;;;;;;;;;1.67;1.67;;;;;;;;5080644;28;45268;-78
2024/03/30 03:26:08;;;;;;;;;1.67;1.67;;;;;;;;5080891;28;45314;-78
2024/03/30 03:28:33;;;;;;;;;2.00;1.33;;;;;;;;5079574;28;45615;-78
2024/03/30 03:30:58;;;;;;;;;2.00;2.00;;;;;;;;5080880;28;45376;-78
2024/03/30 03:33:23;;;;;;;;;2.00;2.00;;;;;;;;5080580;28;45377;-78
2024/03/30 03:35:48;;;;;;;;;2.00;2.00;;;;;;;;5079058;28;48341;-79
2024/03/30 03:38:14;;;;;;;;;2.00;2.00;;;;;;;;5080848;28;45405;-79
2024/03/30 03:40:39;;;;;;;;;3.00;1.67;;;;;;;;5079321;28;45399;-78
2024/03/30 03:43:04;;;;;;;;;3.00;3.00;;;;;;;;5080586;28;45416;-79
2024/03/30 03:45:29;;;;;;;;;4.67;3.00;;;;;;;;5079601;28;46246;-79
2024/03/30 03:47:54;;;;;;;;;3.00;3.00;;;;;;;;5080122;28;45319;-78
2024/03/30 03:50:20;;;;;;;;;3.33;3.33;;;;;;;;5080525;28;45326;-79
2024/03/30 03:52:45;;;;;;;;;5.00;3.00;;;;;;;;5078431;28;47284;-79
2024/03/30 03:55:10;;;;;;;;;5.33;5.33;;;;;;;;5078978;28;47221;-79
2024/03/30 03:57:35;;;;;;;;;6.00;5.33;;;;;;;;5088912;27;45885;-79
2024/03/30 04:00:00;;;;;;;;;9.67;9.67;;;;;;;;5099281;27;45331;-78
2024/03/30 04:02:26;;;;;;;;;9.00;8.00;;;;;;;;5100705;27;45487;-79
2024/03/30 04:04:51;;;;;;;;;9.67;6.67;;;;;;;;5100578;27;45321;-79
2024/03/30 04:07:16;;;;;;;;;6.00;6.00;;;;;;;;5099367;27;46118;-80
2024/03/30 04:09:41;;;;;;;;;7.67;7.33;;;;;;;;5099394;27;45327;-79
2024/03/30 04:12:06;;;;;;;;;6.67;6.67;;;;;;;;5100530;27;45337;-79
2024/03/30 04:14:35;;;;;;;;;8.67;5.00;;;;;;;;5100415;27;45357;-79
2024/03/30 04:17:00;;;;;;;;;5.00;5.00;;;;;;;;5100513;27;45230;-79
2024/03/30 04:19:25;;;;;;;;;4.33;4.33;;;;;;;;5100439;27;45155;-79
2024/03/30 04:21:53;;;;;;;;;4.00;4.00;;;;;;;;5099286;27;46310;-81
2024/03/30 04:24:18;;;;;;;;;4.00;4.00;;;;;;;;5100309;27;45585;-79
2024/03/30 04:26:43;;;;;;;;;2.00;2.00;;;;;;;;5100337;27;45321;-79
2024/03/30 04:29:08;;;;;;;;;6.00;6.00;;;;;;;;5098784;27;45384;-79
2024/03/30 04:31:34;;;;;;;;;7.00;6.00;;;;;;;;5100369;27;45531;-79
2024/03/30 04:33:59;;;;;;;;;4.67;4.67;;;;;;;;5100218;27;46151;-80
2024/03/30 04:36:24;;;;;;;;;3.00;3.00;;;;;;;;5101586;27;45427;-80
2024/03/30 04:38:49;;;;;;;;;3.67;3.00;;;;;;;;5099228;27;45379;-79
2024/03/30 04:41:14;;;;;;;;;4.00;3.00;;;;;;;;5081551;28;46003;-79
2024/03/30 04:43:39;;;;;;;;;5.00;5.00;;;;;;;;5083099;28;46357;-80
2024/03/30 04:46:06;;;;;;;;;7.67;5.67;;;;;;;;5081760;28;45312;-80
2024/03/30 04:48:31;;;;;;;;;4.00;4.00;;;;;;;;5083306;28;45222;-79
2024/03/30 04:50:59;;;;;;;;;5.33;5.33;;;;;;;;5083247;28;45294;-80
2024/03/30 04:53:25;;;;;;;;;6.00;6.00;;;;;;;;5083109;28;45258;-80
2024/03/30 04:55:52;;;;;;;;;4.67;4.67;;;;;;;;5083140;28;45215;-80
2024/03/30 04:58:18;;;;;;;;;4.67;4.33;;;;;;;;5097576;27;45323;-80
2024/03/30 05:00:43;;;;;;;;;7.00;6.67;;;;;;;;5103280;27;45539;-79
2024/03/30 05:03:08;;;;;;;;;5.33;4.67;;;;;;;;5102070;27;47543;-80
2024/03/30 05:05:33;;;;;;;;;5.00;4.33;;;;;;;;5101905;27;45527;-80
2024/03/30 05:07:58;;;;;;;;;6.00;6.00;;;;;;;;5103615;27;45420;-80
2024/03/30 05:10:24;;;;;;;;;8.00;6.67;;;;;;;;5102063;27;47421;-80
2024/03/30 05:12:49;;;;;;;;;8.00;8.00;;;;;;;;5103316;27;45508;-80
2024/03/30 05:15:14;;;;;;;;;8.33;7.67;;;;;;;;5101644;27;45430;-79
2024/03/30 05:17:39;;;;;;;;;7.00;5.67;;;;;;;;5103262;27;45356;-80
2024/03/30 05:22:48;;;;;;;;;9.67;6.67;;;;;;;;5101998;27;45826;-80
2024/03/30 05:25:13;;;;;;;;;6.67;5.00;;;;;;;;5103185;27;45443;-81
2024/03/30 05:27:38;;;;;;;;;7.33;6.00;;;;;;;;5101891;27;45248;-79
2024/03/30 05:30:04;;;;;;;;;6.67;5.67;;;;;;;;5102966;27;45356;-79
2024/03/30 05:32:29;;;;;;;;;6.00;4.67;;;;;;;;5101697;27;47313;-79
2024/03/30 05:34:55;;;;;;;;;7.00;7.00;;;;;;;;5102782;27;45402;-79
2024/03/30 05:37:20;;;;;;;;;5.33;5.33;;;;;;;;5101760;27;45347;-79
2024/03/30 05:39:45;;;;;;;;;5.00;5.00;;;;;;;;5103008;27;45361;-79
2024/03/30 05:42:12;;;;;;;;;5.00;5.00;;;;;;;;5102705;27;45376;-79
2024/03/30 05:44:37;;;;;;;;;5.00;5.00;;;;;;;;5102813;27;45294;-79
2024/03/30 05:47:02;;;;;;;;;7.33;6.00;;;;;;;;5102979;27;45375;-79
2024/03/30 05:49:27;;;;;;;;;6.67;6.67;;;;;;;;5101362;27;46657;-79
2024/03/30 05:51:52;;;;;;;;;6.00;6.00;;;;;;;;5102695;27;45375;-79
2024/03/30 05:54:18;;;;;;;;;6.33;6.00;;;;;;;;5102454;27;45291;-80
2024/03/30 05:56:43;;;;;;;;;7.00;7.00;;;;;;;;5100188;27;45230;-79
2024/03/30 05:59:08;;;;;;;;;6.33;6.33;;;;;;;;5080244;28;47319;-80
2024/03/30 06:01:33;;;;;;;;;11.67;11.67;;;;;;;;5081639;27;46358;-80
2024/03/30 06:03:58;;;;;;;;;10.00;9.00;;;;;;;;5082013;28;45327;-80
2024/03/30 06:06:23;;;;;;;;;9.00;5.00;;;;;;;;5081629;28;45218;-79
2024/03/30 06:08:49;;;;;;;;;15.33;13.33;;;;;;;;5081678;28;45215;-79
2024/03/30 06:11:14;;;;;;;;;12.00;11.33;;;;;;;;5082033;28;46300;-80
2024/03/30 06:13:39;;;;;;;;;13.00;11.33;;;;;;;;5079644;28;45176;-81
2024/03/30 06:16:04;;;;;;;;;13.00;13.00;;;;;;;;5070733;28;45544;-79
2024/03/30 06:18:30;;;;;;;;;14.00;12.67;;;;;;;;5060080;28;46484;-79
2024/03/30 06:20:55;;;;;;;;;13.67;13.67;;;;;;;;5059862;28;48061;-80
2024/03/30 06:23:20;;;;;;;;;16.00;14.00;;;;;;;;5061650;28;45356;-80
2024/03/30 06:25:45;;;;;;;;;17.33;13.33;;;;;;;;5061740;28;45221;-81
2024/03/30 06:28:10;;;;;;;;;12.67;11.33;;;;;;;;5060196;28;47144;-81
2024/03/30 06:30:36;;;;;;;;;11.33;10.33;;;;;;;;5063253;28;45327;-81
2024/03/30 06:33:01;;;;;;;;;9.67;9.00;;;;;;;;5060310;28;45739;-80
2024/03/30 06:35:26;;;;;;;;;13.00;12.00;;;;;;;;5061417;28;45362;-81
2024/03/30 06:37:51;;;;;;;;;11.33;11.33;;;;;;;;5062319;28;45248;-83
2024/03/30 06:45:44;;;;;;;;;12.00;9.00;;;;;;;;5062527;28;45231;-78
2024/03/30 06:48:09;;;;;;;;;9.33;8.00;;;;;;;;5059737;28;46154;-78
2024/03/30 06:50:35;;;;;;;;;6.33;6.33;;;;;;;;5060919;28;46281;-77
2024/03/30 06:53:00;;;;;;;;;7.33;6.00;;;;;;;;5060876;28;45289;-77
2024/03/30 06:55:25;;;;;;;;;4.00;3.33;;;;;;;;5061270;28;45258;-77
2024/03/30 06:57:50;;;;;;;;;9.00;8.33;;;;;;;;5084435;27;45165;-79
2024/03/30 07:00:15;;;;;;;;;7.00;7.00;;;;;;;;5099554;27;48489;-79
2024/03/30 07:02:40;;;;;;;;;10.67;9.67;;;;;;;;5099604;27;45594;-79
2024/03/30 07:05:06;;;;;;;;;10.00;9.00;;;;;;;;5101642;27;45570;-79
2024/03/30 07:07:31;;;;;;;;;11.33;9.67;;;;;;;;5091717;27;46482;-79
2024/03/30 07:09:56;;;;;;;;;13.00;12.00;;;;;;;;5080288;28;45384;-79
2024/03/30 07:12:21;;;;;;;;;10.67;9.67;;;;;;;;5080992;28;45191;-79
2024/03/30 07:14:47;;;;;;;;;11.67;10.00;;;;;;;;5080005;28;45370;-79
2024/03/30 07:17:12;;;;;;;;;12.67;10.67;;;;;;;;5080753;28;45335;-79
2024/03/30 07:19:37;;;;;;;;;14.67;14.00;;;;;;;;5080718;28;45484;-80
2024/03/30 07:22:02;;;;;;;;;13.00;12.33;;;;;;;;5080920;28;45208;-81
2024/03/30 07:24:27;;;;;;;;;13.33;12.67;;;;;;;;5081058;28;45335;-79
2024/03/30 07:26:53;;;;;;;;;19.67;16.67;;;;;;;;5074157;28;46080;-80
2024/03/30 07:29:19;;;;;;;;;16.33;14.67;;;;;;;;5068381;28;46171;-76
2024/03/30 07:31:44;;;;;;;;;18.33;17.00;;;;;;;;5073032;28;45313;-79
2024/03/30 07:34:09;;;;;;;;;17.00;17.00;;;;;;;;5080612;28;45357;-79
2024/03/30 07:36:35;;;;;;;;;18.67;16.33;;;;;;;;5080525;28;45489;-79
2024/03/30 07:39:00;;;;;;;;;17.67;16.33;;;;;;;;5079178;28;48217;-79
2024/03/30 07:41:25;;;;;;;;;14.33;13.67;;;;;;;;5080509;28;45410;-79
2024/03/30 07:43:50;;;;;;;;;15.67;15.67;;;;;;;;5080553;28;45316;-78
2024/03/30 07:46:15;;;;;;;;;19.00;16.67;;;;;;;;5080505;28;45326;-79
2024/03/30 07:48:40;;;;;;;;;15.00;15.00;;;;;;;;5080175;28;46292;-80
2024/03/30 07:51:05;;;;;;;;;11.33;11.00;;;;;;;;5080433;28;45277;-80
2024/03/30 07:53:31;;;;;;;;;14.33;12.33;;;;;;;;5078891;28;45369;-77
2024/03/30 07:55:56;;;;;;;;;9.00;9.00;;;;;;;;5075692;28;47314;-79
2024/03/30 07:58:22;;;;;;;;;11.33;11.33;;;;;;;;5069410;27;46146;-79
2024/03/30 08:00:47;;;;;;;;;13.33;11.67;;;;;;;;5059758;28;45333;-77
2024/03/30 08:03:12;;;;;;;;;11.33;10.67;;;;;;;;5059966;28;45622;-79
2024/03/30 08:05:38;;;;;;;;;10.00;10.00;;;;;;;;5059895;28;45290;-77
2024/03/30 08:08:04;;;;;;;;;14.33;11.33;;;;;;;;5059668;28;45244;-79
2024/03/30 08:10:29;;;;;;;;;12.67;10.33;;;;;;;;5058964;28;45259;-78
2024/03/30 08:12:54;;;;;;;;;14.67;13.67;;;;;;;;5059312;28;45256;-78
2024/03/30 08:15:19;;;;;;;;;13.00;13.00;;;;;;;;5070117;27;45579;-78
2024/03/30 08:17:45;;;;;;;;;15.33;12.00;;;;;;;;5091485;27;46217;-78
2024/03/30 08:20:10;;;;;;;;;10.67;8.67;;;;;;;;5095939;27;46067;-78
2024/03/30 08:22:38;;;;;;;;;8.00;8.00;;;;;;;;5098018;27;45506;-78
2024/03/30 08:25:04;;;;;;;;;7.33;6.67;;;;;;;;5097500;27;45477;-79
2024/03/30 08:27:29;;;;;;;;;9.00;8.00;;;;;;;;5099895;27;46051;-78
2024/03/30 08:29:54;;;;;;;;;7.00;7.00;;;;;;;;5100080;27;45295;-78
2024/03/30 08:32:19;;;;;;;;;11.00;10.00;;;;;;;;5100595;27;45478;-78
2024/03/30 08:34:44;;;;;;;;;9.00;9.00;;;;;;;;5099925;27;45468;-78
2024/03/30 08:37:10;;;;;;;;;9.67;9.67;;;;;;;;5100112;27;45502;-78
2024/03/30 08:39:35;;;;;;;;;8.00;8.00;;;;;;;;5100274;27;45457;-78
2024/03/30 08:42:00;;;;;;;;;10.67;10.00;;;;;;;;5100385;27;45487;-79
2024/03/30 08:44:25;;;;;;;;;7.00;5.00;;;;;;;;5100013;27;45461;-78
2024/03/30 08:46:51;;;;;;;;;8.00;7.33;;;;;;;;5098565;27;48185;-79
2024/03/30 08:49:16;;;;;;;;;11.00;11.00;;;;;;;;5099433;27;45349;-78
2024/03/30 08:51:41;;;;;;;;;11.67;11.67;;;;;;;;5099676;27;45333;-80
2024/03/30 08:54:07;;;;;;;;;12.00;11.33;;;;;;;;5098027;27;47021;-78
2024/03/30 08:56:33;;;;;;;;;11.00;10.00;;;;;;;;5099300;27;45306;-77
2024/03/30 08:58:58;;;;;;;;;9.67;9.67;;;;;;;;5098894;27;45325;-76
2024/03/30 09:01:24;;;;;;;;;6.33;5.33;;;;;;;;5098424;27;45396;-77
2024/03/30 09:03:49;;;;;;;;;12.67;10.00;;;;;;;;5098996;27;45254;-78
2024/03/30 09:06:15;;;;;;;;;11.33;10.33;;;;;;;;5097227;27;46984;-77
2024/03/30 09:08:41;;;;;;;;;9.00;9.00;;;;;;;;5097642;27;45538;-78
2024/03/30 09:11:06;;;;;;;;;12.00;10.00;;;;;;;;5098116;27;45358;-77
2024/03/30 09:13:31;;;;;;;;;7.00;7.00;;;;;;;;5099128;27;45301;-78
2024/03/30 09:15:57;;;;;;;;;7.00;6.33;;;;;;;;5099309;27;46274;-78
2024/03/30 09:18:23;;;;;;;;;11.33;10.33;;;;;;;;5099140;27;45393;-78
2024/03/30 09:20:48;;;;;;;;;5.33;5.33;;;;;;;;5092748;27;45317;-78
2024/03/30 09:23:13;;;;;;;;;6.00;5.00;;;;;;;;5094643;27;45612;-78
2024/03/30 09:25:38;;;;;;;;;6.00;5.00;;;;;;;;5102868;27;46222;-78
2024/03/30 09:28:04;;;;;;;;;5.67;5.67;;;;;;;;5103142;27;45439;-78
2024/03/30 09:30:29;;;;;;;;;6.67;4.00;;;;;;;;5103220;27;45373;-78
2024/03/30 09:32:54;;;;;;;;;4.00;4.00;;;;;;;;5086426;27;45315;-77
2024/03/30 09:35:19;;;;;;;;;2.00;2.00;;;;;;;;5088098;27;45438;-79
2024/03/30 09:37:44;;;;;;;;;4.67;3.00;;;;;;;;5078431;28;45530;-78
2024/03/30 09:40:11;;;;;;;;;3.67;3.67;;;;;;;;5082492;28;45533;-78
2024/03/30 09:42:36;;;;;;;;;4.67;3.67;;;;;;;;5090064;27;45260;-79
2024/03/30 09:45:02;;;;;;;;;2.33;2.33;;;;;;;;5090353;27;45298;-79
2024/03/30 09:47:29;;;;;;;;;4.00;3.00;;;;;;;;5082352;28;45294;-78
2024/03/30 09:49:55;;;;;;;;;1.00;1.00;;;;;;;;5100027;27;45521;-78
2024/03/30 09:52:23;;;;;;;;;3.00;3.00;;;;;;;;5092287;27;45290;-78
2024/03/30 09:54:55;;;;;;;;;1.33;1.33;;;;;;;;5081321;28;46430;-78
2024/03/30 09:57:22;;;;;;;;;3.00;1.67;;;;;;;;5088550;27;46278;-78
2024/03/30 09:59:48;;;;;;;;;2.00;1.00;;;;;;;;5102617;27;45361;-78
2024/03/30 10:02:13;;;;;;;;;0.00;0.00;;;;;;;;5102647;27;45422;-78
2024/03/30 10:04:38;;;;;;;;;1.67;1.67;;;;;;;;5102478;27;45255;-78
2024/03/30 10:07:06;;;;;;;;;2.00;2.00;;;;;;;;5090274;27;45256;-78
2024/03/30 10:09:32;;;;;;;;;3.00;1.00;;;;;;;;5082184;27;45378;-77
2024/03/30 10:11:59;;;;;;;;;2.00;2.00;;;;;;;;5102423;27;45302;-78
2024/03/30 10:14:31;;;;;;;;;2.00;2.00;;;;;;;;5096692;27;46116;-77
2024/03/30 10:16:56;;;;;;;;;1.00;0.67;;;;;;;;5081819;28;45449;-78
2024/03/30 10:19:22;;;;;;;;;3.00;2.00;;;;;;;;5081591;28;45457;-78
2024/03/30 10:21:47;;;;;;;;;2.00;0.00;;;;;;;;5081933;28;45303;-79
2024/03/30 10:24:13;;;;;;;;;2.00;2.00;;;;;;;;5080532;28;48281;-77
2024/03/30 10:26:41;;;;;;;;;1.00;1.00;;;;;;;;5081633;28;45366;-77
2024/03/30 10:29:06;;;;;;;;;1.33;1.33;;;;;;;;5080322;28;45324;-78
2024/03/30 10:31:32;;;;;;;;;2.33;2.33;;;;;;;;5081460;28;45328;-78
2024/03/30 10:33:58;;;;;;;;;7.00;6.33;;;;;;;;5079090;28;47181;-77
2024/03/30 10:36:23;;;;;;;;;12.00;12.00;;;;;;;;5081419;28;45358;-78
2024/03/30 10:38:49;;;;;;;;;2.00;2.00;;;;;;;;5081693;28;45346;-77
2024/03/30 10:41:14;;;;;;;;;1.67;1.00;;;;;;;;5079966;28;47257;-78
2024/03/30 10:43:39;;;;;;;;;2.00;2.00;;;;;;;;5090533;27;47167;-78
2024/03/30 10:46:05;;;;;;;;;1.67;1.67;;;;;;;;5100564;27;45676;-78
2024/03/30 10:48:30;;;;;;;;;2.67;2.00;;;;;;;;5101571;27;45417;-77
2024/03/30 10:50:56;;;;;;;;;1.33;1.33;;;;;;;;5101549;27;45523;-76
2024/03/30 10:53:21;;;;;;;;;4.33;3.33;;;;;;;;5101651;27;45356;-76
2024/03/30 10:55:47;;;;;;;;;5.00;3.00;;;;;;;;5101667;27;45297;-76
2024/03/30 10:58:12;;;;;;;;;2.33;2.33;;;;;;;;5101843;27;45298;-79
2024/03/30 11:00:38;;;;;;;;;2.00;2.00;;;;;;;;5091841;27;46084;-80
2024/03/30 11:03:04;;;;;;;;;2.00;2.00;;;;;;;;5084781;27;45571;-80
2024/03/30 11:05:30;;;;;;;;;3.33;3.33;;;;;;;;5086522;27;45362;-77
2024/03/30 11:07:55;;;;;;;;;2.00;2.00;;;;;;;;5100149;27;45326;-78
2024/03/30 11:10:21;;;;;;;;;3.33;3.33;;;;;;;;5099645;27;45379;-77
2024/03/30 11:12:47;;;;;;;;;2.00;2.00;;;;;;;;5060637;28;45322;-75
2024/03/30 11:15:12;;;;;;;;;1.00;1.00;;;;;;;;5060026;28;45316;-77
2024/03/30 11:17:40;;;;;;;;;0.00;0.00;;;;;;;;5060808;28;45310;-78
2024/03/30 11:20:06;;;;;;;;;0.67;0.33;;;;;;;;5058505;28;46581;-77
2024/03/30 11:22:40;;;;;;;;;0.33;0.33;;;;;;;;5060521;28;46151;-77
2024/03/30 11:25:08;;;;;;;;;2.00;2.00;;;;;;;;5059132;28;46156;-77
2024/03/30 11:27:35;;;;;;;;;1.33;0.00;;;;;;;;5060634;28;45338;-77
2024/03/30 11:30:07;;;;;;;;;3.67;3.67;;;;;;;;5060136;28;45513;-78
2024/03/30 11:32:38;;;;;;;;;2.00;1.67;;;;;;;;5060306;28;47835;-78
2024/03/30 11:35:16;;;;;;;;;1.33;1.33;;;;;;;;5060179;28;45437;-77
2024/03/30 11:37:42;;;;;;;;;0.00;0.00;;;;;;;;5060512;28;45303;-76
2024/03/30 11:40:10;;;;;;;;;1.33;1.33;;;;;;;;5060118;28;45323;-78
2024/03/30 11:42:43;;;;;;;;;0.67;0.67;;;;;;;;5058644;28;47277;-77
2024/03/30 11:45:09;;;;;;;;;1.00;1.00;;;;;;;;5059828;28;45264;-78
2024/03/30 11:47:35;;;;;;;;;0.67;0.67;;;;;;;;5059978;28;45605;-79
2024/03/30 11:50:00;;;;;;;;;1.00;1.00;;;;;;;;5065703;28;45228;-79
2024/03/30 11:52:25;;;;;;;;;2.00;2.00;;;;;;;;5071058;28;47129;-78
2024/03/30 11:54:51;;;;;;;;;2.33;0.67;;;;;;;;5062443;28;45906;-76
2024/03/30 11:57:16;;;;;;;;;0.33;0.33;;;;;;;;5069455;27;45334;-76
2024/03/30 11:59:42;;;;;;;;;1.33;1.33;;;;;;;;5066912;28;47255;-75
2024/03/30 12:02:09;;;;;;;;;1.00;1.00;;;;;;;;5059881;28;46165;-77
2024/03/30 12:04:41;;;;;;;;;1.67;1.67;;;;;;;;5059738;28;45312;-75
2024/03/30 12:07:07;;;;;;;;;1.33;0.33;;;;;;;;5074293;28;45436;-75
2024/03/30 12:09:32;;;;;;;;;1.00;1.00;;;;;;;;5079913;28;45267;-75
2024/03/30 12:12:17;;;;;;;;;0.33;0.33;;;;;;;;5077885;28;47078;-75
2024/03/30 12:14:42;;;;;;;;;0.67;0.67;;;;;;;;5079766;28;45284;-76
2024/03/30 12:17:08;;;;;;;;;0.33;0.33;;;;;;;;5077455;28;45602;-79
2024/03/30 12:19:34;;;;;;;;;3.33;3.33;;;;;;;;5079481;28;45315;-75
2024/03/30 12:21:59;;;;;;;;;2.00;2.00;;;;;;;;5079889;27;46369;-76
2024/03/30 12:24:25;;;;;;;;;2.00;2.00;;;;;;;;5078557;28;45390;-76
2024/03/30 12:26:51;;;;;;;;;3.00;3.00;;;;;;;;5078663;27;45301;-75
2024/03/30 12:29:16;;;;;;;;;2.00;2.00;;;;;;;;5079292;28;45326;-78
2024/03/30 12:31:41;;;;;;;;;2.67;2.67;;;;;;;;5077965;27;48371;-77
2024/03/30 12:34:08;;;;;;;;;0.33;0.33;;;;;;;;5068715;27;45731;-77
2024/03/30 12:36:34;;;;;;;;;2.00;2.00;;;;;;;;5068931;27;45454;-78
2024/03/30 12:38:59;;;;;;;;;1.67;1.67;;;;;;;;5065455;28;45552;-77
2024/03/30 12:41:27;;;;;;;;;1.33;1.33;;;;;;;;5070492;27;46098;-77
2024/03/30 12:43:59;;;;;;;;;1.33;1.33;;;;;;;;5078628;28;45409;-77
2024/03/30 12:46:24;;;;;;;;;3.67;3.00;;;;;;;;5071644;27;45208;-78
2024/03/30 12:48:49;;;;;;;;;1.00;1.00;;;;;;;;5078247;28;45433;-77
2024/03/30 12:51:14;;;;;;;;;0.00;0.00;;;;;;;;5071869;27;45378;-77
2024/03/30 12:53:40;;;;;;;;;1.00;1.00;;;;;;;;5068613;28;45458;-78
2024/03/30 12:56:06;;;;;;;;;1.33;1.33;;;;;;;;5071675;27;45363;-78
2024/03/30 12:58:31;;;;;;;;;0.00;0.00;;;;;;;;5074223;27;45317;-76
2024/03/30 13:00:56;;;;;;;;;0.00;0.00;;;;;;;;5062690;27;45506;-77
2024/03/30 13:03:22;;;;;;;;;0.00;0.00;;;;;;;;5072418;28;45464;-77
2024/03/30 13:05:48;;;;;;;;;1.33;1.00;;;;;;;;5077911;28;45362;-78
2024/03/30 13:08:14;;;;;;;;;0.00;0.00;;;;;;;;5081100;27;46293;-77
2024/03/30 13:10:41;;;;;;;;;1.00;1.00;;;;;;;;5080865;28;47404;-77
2024/03/30 13:13:07;;;;;;;;;0.00;0.00;;;;;;;;5081954;28;45422;-77
2024/03/30 13:15:32;;;;;;;;;1.67;1.67;;;;;;;;5081962;28;45403;-77
2024/03/30 13:18:04;;;;;;;;;1.00;1.00;;;;;;;;5079034;28;45327;-77
2024/03/30 13:20:30;;;;;;;;;0.00;0.00;;;;;;;;5061269;28;45380;-77
2024/03/30 13:22:58;;;;;;;;;1.00;1.00;;;;;;;;5062246;28;45763;-76
2024/03/30 13:25:24;;;;;;;;;0.00;0.00;;;;;;;;5069129;28;45455;-77
2024/03/30 13:27:49;;;;;;;;;1.33;1.00;;;;;;;;5069232;28;45409;-78
2024/03/30 13:30:14;;;;;;;;;0.00;0.00;;;;;;;;5077501;28;45341;-78
2024/03/30 13:32:40;;;;;;;;;1.00;1.00;;;;;;;;5073394;28;45418;-78
2024/03/30 13:35:09;;;;;;;;;0.67;0.67;;;;;;;;5067958;28;45359;-78
2024/03/30 13:37:35;;;;;;;;;2.33;2.33;;;;;;;;5071413;28;45376;-78
2024/03/30 13:40:00;;;;;;;;;3.00;3.00;;;;;;;;5074312;28;46122;-77
2024/03/30 13:42:26;;;;;;;;;4.67;4.00;;;;;;;;5066261;28;45443;-77
2024/03/30 13:44:51;;;;;;;;;0.33;0.33;;;;;;;;5071217;28;45350;-78
2024/03/30 13:47:16;;;;;;;;;0.00;0.00;;;;;;;;5070621;28;46728;-79
2024/03/30 13:49:41;;;;;;;;;0.33;0.33;;;;;;;;5072852;28;46968;-78
2024/03/30 13:52:07;;;;;;;;;1.00;1.00;;;;;;;;5081604;28;45299;-78
2024/03/30 13:54:32;;;;;;;;;1.00;1.00;;;;;;;;5081574;28;45275;-78
2024/03/30 13:56:58;;;;;;;;;0.33;0.33;;;;;;;;5081874;27;45341;-77
2024/03/30 13:59:23;;;;;;;;;0.00;0.00;;;;;;;;5079791;27;46054;-78
2024/03/30 14:01:48;;;;;;;;;0.00;0.00;;;;;;;;5081023;27;45734;-77
2024/03/30 14:04:13;;;;;;;;;0.00;0.00;;;;;;;;5080852;28;45352;-78
2024/03/30 14:06:39;;;;;;;;;0.00;0.00;;;;;;;;5081149;28;45550;-78
2024/03/30 14:09:04;;;;;;;;;0.00;0.00;;;;;;;;5078712;27;47193;-77
2024/03/30 14:11:30;;;;;;;;;0.00;0.00;;;;;;;;5081436;28;45326;-78
2024/03/30 14:13:55;;;;;;;;;0.33;0.33;;;;;;;;5080474;27;45564;-78
2024/03/30 14:16:20;;;;;;;;;0.33;0.00;;;;;;;;5080176;28;45508;-78
2024/03/30 14:18:46;;;;;;;;;0.00;0.00;;;;;;;;5081403;27;45401;-77
2024/03/30 14:21:11;;;;;;;;;0.00;0.00;;;;;;;;5081535;28;45263;-77
2024/03/30 14:23:36;;;;;;;;;1.00;1.00;;;;;;;;5081911;27;45334;-76
2024/03/30 14:26:01;;;;;;;;;1.00;0.00;;;;;;;;5081863;28;45565;-78
2024/03/30 14:28:29;;;;;;;;;1.00;1.00;;;;;;;;5080922;27;45429;-78
2024/03/30 14:30:54;;;;;;;;;1.00;1.00;;;;;;;;5080236;28;46113;-78
2024/03/30 14:33:19;;;;;;;;;0.00;0.00;;;;;;;;5081649;27;45251;-78
2024/03/30 14:35:45;;;;;;;;;0.00;0.00;;;;;;;;5081434;28;45335;-78
2024/03/30 14:38:10;;;;;;;;;0.00;0.00;;;;;;;;5081606;27;45348;-76